createdAt,value
2019-01-08T00:01:37.937Z,88.14
2019-01-08T00:04:06.826Z,87.80
2019-01-08T00:06:36.024Z,87.65
2019-01-08T00:09:05.722Z,87.44
2019-01-08T00:11:34.624Z,87.08
2019-01-08T00:14:03.619Z,86.55
2019-01-08T00:16:32.267Z,87.01
2019-01-08T00:19:01.196Z,86.83
2019-01-08T00:21:30.086Z,86.92
2019-01-08T00:23:58.711Z,86.82
2019-01-08T00:26:27.664Z,86.95
2019-01-08T00:28:56.316Z,87.13
2019-01-08T00:31:25.243Z,87.32
2019-01-08T00:33:53.869Z,87.31
2019-01-08T00:36:23.132Z,87.16
2019-01-08T00:38:52.017Z,86.95
2019-01-08T00:41:20.877Z,87.10
2019-01-08T00:43:50.106Z,87.12
2019-01-08T00:46:19.001Z,87.09
2019-01-08T00:48:47.893Z,86.95
2019-01-08T00:51:16.784Z,86.89
2019-01-08T00:53:45.674Z,86.78
2019-01-08T00:56:14.564Z,86.63
2019-01-08T00:58:51.320Z,86.48
2019-01-08T01:01:14.496Z,86.33
2019-01-08T01:03:43.113Z,86.41
2019-01-08T01:06:12.073Z,86.44
2019-01-08T01:08:40.675Z,86.38
2019-01-08T01:11:09.543Z,86.59
2019-01-08T01:13:41.082Z,86.39
2019-01-08T01:16:09.994Z,86.04
2019-01-08T01:18:38.612Z,86.63
2019-01-08T01:21:07.605Z,85.96
2019-01-08T01:23:36.561Z,85.71
2019-01-08T01:26:05.765Z,85.52
2019-01-08T01:28:35.373Z,85.09
2019-01-08T01:31:04.069Z,85.43
2019-01-08T01:33:33.362Z,85.43
2019-01-08T01:36:02.322Z,84.83
2019-01-08T01:38:31.553Z,84.95
2019-01-08T01:41:00.443Z,84.72
2019-01-08T01:43:29.050Z,84.65
2019-01-08T01:45:58.329Z,84.56
2019-01-08T01:48:27.628Z,84.78
2019-01-08T01:50:56.615Z,84.74
2019-01-08T01:53:25.516Z,84.75
2019-01-08T01:55:54.406Z,84.94
2019-01-08T01:58:23.708Z,85.27
2019-01-08T02:00:52.301Z,85.27
2019-01-08T02:03:21.596Z,85.56
2019-01-08T02:05:50.481Z,85.45
2019-01-08T02:08:19.792Z,84.59
2019-01-08T02:10:48.776Z,84.51
2019-01-08T02:13:17.831Z,84.24
2019-01-08T02:18:14.661Z,84.56
2019-01-08T02:20:43.300Z,85.33
2019-01-08T02:23:12.212Z,85.43
2019-01-08T02:25:41.205Z,85.59
2019-01-08T02:28:10.505Z,85.33
2019-01-08T02:30:39.114Z,85.33
2019-01-08T02:33:07.776Z,85.83
2019-01-08T02:35:37.177Z,85.83
2019-01-08T02:38:06.477Z,85.71
2019-01-08T02:40:35.779Z,85.72
2019-01-08T02:43:04.492Z,85.72
2019-01-08T02:45:33.361Z,85.71
2019-01-08T02:48:02.364Z,85.22
2019-01-08T02:50:31.240Z,84.30
2019-01-08T02:52:59.869Z,84.30
2019-01-08T02:55:28.818Z,83.87
2019-01-08T02:57:57.804Z,83.72
2019-01-08T03:00:26.705Z,83.41
2019-01-08T03:02:55.902Z,83.00
2019-01-08T03:05:24.793Z,82.76
2019-01-08T03:07:53.992Z,83.58
2019-01-08T03:10:23.193Z,83.64
2019-01-08T03:12:52.393Z,83.98
2019-01-08T03:15:21.590Z,83.50
2019-01-08T03:17:50.764Z,83.07
2019-01-08T03:20:19.678Z,83.39
2019-01-08T03:22:48.338Z,83.19
2019-01-08T03:25:17.001Z,83.19
2019-01-08T03:27:45.947Z,83.11
2019-01-08T03:30:14.836Z,83.10
2019-01-08T03:32:43.497Z,82.69
2019-01-08T03:35:12.514Z,83.85
2019-01-08T03:37:41.407Z,84.91
2019-01-08T03:40:10.126Z,86.71
2019-01-08T03:42:38.981Z,87.16
2019-01-08T03:45:07.802Z,87.50
2019-01-08T03:47:36.765Z,87.97
2019-01-08T03:50:05.864Z,88.51
2019-01-08T03:52:34.853Z,88.36
2019-01-08T03:55:03.848Z,88.23
2019-01-08T03:57:32.625Z,87.92
2019-01-08T04:00:02.147Z,87.31
2019-01-08T04:02:31.119Z,87.20
2019-01-08T04:05:00.355Z,87.52
2019-01-08T04:07:28.975Z,87.32
2019-01-08T04:09:57.587Z,87.66
2019-01-08T04:12:26.802Z,87.09
2019-01-08T04:14:55.445Z,86.98
2019-01-08T04:17:24.380Z,86.96
2019-01-08T04:19:53.373Z,87.27
2019-01-08T04:22:22.256Z,87.20
2019-01-08T04:24:50.869Z,87.84
2019-01-08T04:27:19.853Z,87.56
2019-01-08T04:29:50.698Z,87.92
2019-01-08T04:32:18.828Z,87.88
2019-01-08T04:34:47.739Z,87.30
2019-01-08T04:37:16.387Z,87.23
2019-01-08T04:39:45.324Z,87.06
2019-01-08T04:42:14.316Z,87.02
2019-01-08T04:44:43.617Z,87.02
2019-01-08T04:47:12.243Z,87.25
2019-01-08T04:49:41.193Z,87.51
2019-01-08T04:52:10.145Z,87.39
2019-01-08T04:54:38.771Z,87.52
2019-01-08T04:57:07.472Z,87.84
2019-01-08T04:59:36.655Z,88.23
2019-01-08T05:02:05.552Z,88.34
2019-01-08T05:04:34.209Z,88.21
2019-01-08T05:07:03.121Z,88.98
2019-01-08T05:09:32.417Z,88.93
2019-01-08T05:12:01.639Z,89.08
2019-01-08T05:14:30.252Z,88.80
2019-01-08T05:16:59.213Z,88.41
2019-01-08T05:19:28.112Z,87.72
2019-01-08T05:21:57.100Z,87.90
2019-01-08T05:24:26.294Z,88.48
2019-01-08T05:26:55.495Z,88.28
2019-01-08T05:29:24.404Z,88.37
2019-01-08T05:31:53.274Z,88.30
2019-01-08T05:34:22.508Z,88.21
2019-01-08T05:36:51.474Z,88.50
2019-01-08T05:39:20.765Z,88.78
2019-01-08T05:41:49.963Z,88.88
2019-01-08T05:44:19.573Z,88.62
2019-01-08T05:46:48.531Z,88.84
2019-01-08T05:49:17.772Z,88.93
2019-01-08T05:51:47.168Z,89.47
2019-01-08T05:54:15.776Z,88.19
2019-01-08T05:56:44.748Z,88.28
2019-01-08T05:59:13.633Z,88.03
2019-01-08T06:01:42.275Z,87.82
2019-01-08T06:04:11.520Z,87.99
2019-01-08T06:06:40.568Z,88.03
2019-01-08T06:09:09.507Z,88.14
2019-01-08T06:11:38.606Z,88.20
2019-01-08T06:14:07.496Z,88.37
2019-01-08T06:16:36.825Z,88.81
2019-01-08T06:19:05.689Z,88.75
2019-01-08T06:21:34.573Z,88.63
2019-01-08T06:24:03.776Z,88.75
2019-01-08T06:26:32.412Z,88.89
2019-01-08T06:29:01.352Z,88.84
2019-01-08T06:31:30.351Z,89.27
2019-01-08T06:33:59.541Z,90.06
2019-01-08T06:36:28.436Z,89.51
2019-01-08T06:38:57.633Z,89.63
2019-01-08T06:41:26.527Z,90.10
2019-01-08T06:43:55.139Z,89.85
2019-01-08T06:46:24.101Z,89.59
2019-01-08T06:48:52.985Z,89.67
2019-01-08T06:51:21.883Z,89.61
2019-01-08T06:53:50.878Z,89.92
2019-01-08T06:56:19.881Z,90.33
2019-01-08T06:58:48.764Z,90.47
2019-01-08T07:01:17.402Z,91.04
2019-01-08T07:03:46.953Z,91.34
2019-01-08T07:06:15.880Z,91.33
2019-01-08T07:08:44.744Z,90.94
2019-01-08T07:11:13.343Z,91.07
2019-01-08T07:13:42.365Z,91.07
2019-01-08T07:16:11.322Z,91.37
2019-01-08T07:18:40.203Z,91.36
2019-01-08T07:21:09.198Z,91.48
2019-01-08T07:23:37.812Z,91.46
2019-01-08T07:26:07.085Z,91.21
2019-01-08T07:28:36.010Z,90.74
2019-01-08T07:31:04.967Z,90.84
2019-01-08T07:33:33.863Z,90.55
2019-01-08T07:36:02.748Z,90.58
2019-01-08T07:38:31.652Z,90.46
2019-01-08T07:41:00.840Z,90.73
2019-01-08T07:43:29.932Z,91.20
2019-01-08T07:45:58.547Z,91.49
2019-01-08T07:48:27.555Z,91.94
2019-01-08T07:50:56.505Z,91.82
2019-01-08T07:53:25.393Z,91.91
2019-01-08T07:55:54.592Z,91.96
2019-01-08T07:58:23.483Z,92.08
2019-01-08T08:00:52.401Z,92.29
2019-01-08T08:03:21.370Z,92.16
2019-01-08T08:05:50.258Z,92.13
2019-01-08T08:08:19.169Z,92.18
2019-01-08T08:10:48.167Z,91.66
2019-01-08T08:13:17.140Z,91.53
2019-01-08T08:15:47.403Z,91.62
2019-01-08T08:18:16.352Z,91.12
2019-01-08T08:20:45.553Z,91.44
2019-01-08T08:23:14.437Z,91.49
2019-01-08T08:25:43.338Z,91.64
2019-01-08T08:28:12.645Z,91.65
2019-01-08T08:30:41.937Z,91.69
2019-01-08T08:33:10.828Z,91.86
2019-01-08T08:35:39.718Z,91.86
2019-01-08T08:38:08.696Z,91.91
2019-01-08T08:40:37.651Z,92.37
2019-01-08T08:43:06.267Z,91.70
2019-01-08T08:45:35.185Z,91.62
2019-01-08T08:48:04.106Z,91.42
2019-01-08T08:50:32.976Z,91.84
2019-01-08T08:53:01.575Z,91.55
2019-01-08T08:55:30.240Z,91.80
2019-01-08T08:57:59.127Z,91.92
2019-01-08T09:00:27.753Z,92.15
2019-01-08T09:02:56.708Z,92.31
2019-01-08T09:05:25.596Z,92.29
2019-01-08T09:07:54.806Z,92.30
2019-01-08T09:10:24.095Z,92.33
2019-01-08T09:12:52.986Z,92.17
2019-01-08T09:15:21.878Z,92.31
2019-01-08T09:17:50.832Z,92.33
2019-01-08T09:20:19.765Z,92.50
2019-01-08T09:22:48.382Z,92.48
2019-01-08T09:25:17.938Z,92.44
2019-01-08T09:27:46.850Z,92.58
2019-01-08T09:30:15.838Z,92.67
2019-01-08T09:32:44.754Z,92.32
2019-01-08T09:35:14.030Z,92.51
2019-01-08T09:37:42.635Z,92.25
2019-01-08T09:40:11.361Z,91.71
2019-01-08T09:42:39.973Z,91.44
2019-01-08T09:45:09.434Z,91.33
2019-01-08T09:47:38.389Z,91.17
2019-01-08T09:50:08.515Z,90.67
2019-01-08T09:52:37.806Z,91.12
2019-01-08T09:55:06.930Z,91.37
2019-01-08T09:57:36.203Z,91.09
2019-01-08T10:00:05.520Z,90.92
2019-01-08T10:02:34.700Z,90.74
2019-01-08T10:05:03.678Z,91.02
2019-01-08T10:07:32.337Z,91.23
2019-01-08T10:10:01.282Z,91.43
2019-01-08T10:12:30.267Z,91.08
2019-01-08T10:14:59.158Z,91.12
2019-01-08T10:17:28.156Z,91.38
2019-01-08T10:19:57.036Z,91.56
2019-01-08T10:22:26.241Z,91.77
2019-01-08T10:24:55.132Z,91.79
2019-01-08T10:27:24.128Z,91.94
2019-01-08T10:29:53.127Z,91.98
2019-01-08T10:32:21.753Z,92.03
2019-01-08T10:34:50.380Z,92.52
2019-01-08T10:37:19.305Z,92.58
2019-01-08T10:39:48.175Z,92.63
2019-01-08T10:42:17.058Z,92.53
2019-01-08T10:44:45.739Z,92.24
2019-01-08T10:47:14.611Z,92.09
2019-01-08T10:49:44.146Z,91.99
2019-01-08T10:52:12.788Z,91.81
2019-01-08T10:54:41.723Z,91.50
2019-01-08T10:57:10.716Z,90.83
2019-01-08T10:59:39.321Z,89.65
2019-01-08T11:02:08.289Z,90.11
2019-01-08T11:04:37.492Z,90.49
2019-01-08T11:07:06.384Z,90.81
2019-01-08T11:09:35.488Z,90.92
2019-01-08T11:12:04.153Z,91.29
2019-01-08T11:14:32.769Z,91.63
2019-01-08T11:17:01.403Z,91.99
2019-01-08T11:19:30.328Z,91.98
2019-01-08T11:21:58.964Z,92.05
2019-01-08T11:24:27.583Z,92.19
2019-01-08T11:26:56.210Z,91.93
2019-01-08T11:29:25.488Z,91.85
2019-01-08T11:31:54.375Z,91.74
2019-01-08T11:34:23.371Z,91.46
2019-01-08T11:36:52.264Z,91.01
2019-01-08T11:39:21.236Z,91.11
2019-01-08T11:41:49.885Z,91.17
2019-01-08T11:44:19.145Z,91.39
2019-01-08T11:46:48.339Z,91.72
2019-01-08T11:49:16.995Z,91.50
2019-01-08T11:51:45.927Z,92.07
2019-01-08T11:54:14.912Z,92.04
2019-01-08T11:56:43.579Z,92.35
2019-01-08T11:59:12.169Z,92.52
2019-01-08T12:01:40.782Z,91.98
2019-01-08T12:04:09.663Z,89.91
2019-01-08T12:06:38.310Z,89.87
2019-01-08T12:09:07.576Z,89.07
2019-01-08T12:11:36.842Z,88.40
2019-01-08T12:14:06.399Z,88.25
2019-01-08T12:16:35.339Z,88.31
2019-01-08T12:19:03.974Z,88.74
2019-01-08T12:21:32.667Z,88.25
2019-01-08T12:24:01.655Z,88.25
2019-01-08T12:26:30.298Z,88.84
2019-01-08T12:28:59.390Z,89.11
2019-01-08T12:31:28.379Z,87.98
2019-01-08T12:33:57.991Z,88.93
2019-01-08T12:36:26.880Z,89.34
2019-01-08T12:38:55.774Z,89.56
2019-01-08T12:41:24.662Z,89.15
2019-01-08T12:43:55.604Z,89.17
2019-01-08T12:46:24.190Z,88.62
2019-01-08T12:48:53.489Z,88.55
2019-01-08T12:51:22.379Z,87.93
2019-01-08T12:53:51.376Z,87.21
2019-01-08T12:56:20.569Z,86.09
2019-01-08T12:58:50.178Z,86.19
2019-01-08T13:01:21.012Z,85.77
2019-01-08T13:03:49.686Z,84.76
2019-01-08T13:06:18.591Z,84.08
2019-01-08T13:08:47.588Z,84.18
2019-01-08T13:11:16.548Z,83.75
2019-01-08T13:13:45.184Z,82.87
2019-01-08T13:16:14.163Z,82.33
2019-01-08T13:18:42.770Z,81.54
2019-01-08T13:21:11.734Z,81.88
2019-01-08T13:23:40.735Z,82.09
2019-01-08T13:26:09.937Z,82.09
2019-01-08T13:28:38.829Z,81.72
2019-01-08T13:31:07.830Z,81.38
2019-01-08T13:33:37.113Z,81.70
2019-01-08T13:36:06.938Z,81.93
2019-01-08T13:38:35.593Z,81.11
2019-01-08T13:41:04.491Z,81.38
2019-01-08T13:43:33.817Z,80.70
2019-01-08T13:46:03.116Z,80.66
2019-01-08T13:48:31.990Z,79.93
2019-01-08T13:51:00.618Z,79.89
2019-01-08T13:53:29.574Z,80.55
2019-01-08T13:55:58.452Z,80.08
2019-01-08T13:58:27.358Z,80.19
2019-01-08T14:00:55.987Z,79.94
2019-01-08T14:03:24.935Z,80.20
2019-01-08T14:05:54.141Z,79.46
2019-01-08T14:08:23.140Z,80.06
2019-01-08T14:10:56.459Z,80.50
2019-01-08T14:13:22.963Z,80.92
2019-01-08T14:15:51.572Z,81.34
2019-01-08T14:18:20.850Z,81.29
2019-01-08T14:20:49.841Z,81.79
2019-01-08T14:23:19.040Z,81.15
2019-01-08T14:25:47.991Z,81.54
2019-01-08T14:28:16.660Z,81.82
2019-01-08T14:30:45.307Z,82.58
2019-01-08T14:33:14.190Z,82.22
2019-01-08T14:35:43.150Z,82.81
2019-01-08T14:38:12.389Z,84.21
2019-01-08T14:40:41.990Z,83.71
2019-01-08T14:43:14.299Z,83.68
2019-01-08T14:45:41.353Z,83.41
2019-01-08T14:48:10.612Z,83.27
2019-01-08T14:50:39.910Z,82.46
2019-01-08T14:53:08.921Z,81.66
2019-01-08T14:55:37.527Z,81.47
2019-01-08T14:58:06.482Z,81.32
2019-01-08T15:00:35.133Z,81.60
2019-01-08T15:03:04.673Z,81.96
2019-01-08T15:05:33.875Z,81.95
2019-01-08T15:08:02.764Z,82.06
2019-01-08T15:10:31.758Z,83.18
2019-01-08T15:13:00.751Z,83.66
2019-01-08T15:15:29.377Z,83.36
2019-01-08T15:17:57.996Z,83.30
2019-01-08T15:20:27.254Z,82.78
2019-01-08T15:22:56.109Z,83.28
2019-01-08T15:25:24.732Z,83.63
2019-01-08T15:27:53.891Z,83.71
2019-01-08T15:30:22.783Z,83.53
2019-01-08T15:32:58.145Z,84.15
2019-01-08T15:35:22.306Z,83.93
2019-01-08T15:37:51.241Z,83.70
2019-01-08T15:40:20.504Z,84.23
2019-01-08T15:42:50.312Z,83.94
2019-01-08T15:45:18.980Z,83.47
2019-01-08T15:47:47.901Z,83.73
2019-01-08T15:50:16.896Z,83.95
2019-01-08T15:52:45.867Z,83.73
2019-01-08T15:55:14.877Z,84.36
2019-01-08T15:57:44.091Z,84.38
2019-01-08T16:00:13.051Z,84.58
2019-01-08T16:02:41.975Z,84.86
2019-01-08T16:05:10.954Z,85.28
2019-01-08T16:07:39.845Z,85.04
2019-01-08T16:10:08.519Z,85.48
2019-01-08T16:12:37.422Z,85.83
2019-01-08T16:15:06.824Z,86.00
2019-01-08T16:17:36.025Z,85.96
2019-01-08T16:20:05.432Z,86.83
2019-01-08T16:22:34.061Z,87.10
2019-01-08T16:25:03.054Z,87.47
2019-01-08T16:27:31.996Z,87.28
2019-01-08T16:30:00.886Z,87.33
2019-01-08T16:32:29.783Z,87.09
2019-01-08T16:34:58.403Z,87.05
2019-01-08T16:37:27.036Z,87.11
2019-01-08T16:39:55.666Z,87.10
2019-01-08T16:42:24.612Z,86.16
2019-01-08T16:44:53.293Z,85.41
2019-01-08T16:47:22.201Z,85.21
2019-01-08T16:49:51.137Z,84.86
2019-01-08T16:52:20.495Z,84.27
2019-01-08T16:54:49.127Z,84.21
2019-01-08T16:57:18.072Z,83.52
2019-01-08T16:59:47.270Z,83.06
2019-01-08T17:02:16.468Z,82.99
2019-01-08T17:04:45.463Z,82.79
2019-01-08T17:07:14.131Z,82.32
2019-01-08T17:09:43.040Z,82.15
2019-01-08T17:12:11.764Z,82.19
2019-01-08T17:14:41.131Z,83.00
2019-01-08T17:17:09.751Z,82.83
2019-01-08T17:19:38.708Z,82.41
2019-01-08T17:22:07.328Z,82.69
2019-01-08T17:24:36.607Z,82.09
2019-01-08T17:27:05.229Z,81.32
2019-01-08T17:29:34.175Z,81.82
2019-01-08T17:32:03.155Z,82.13
2019-01-08T17:34:32.166Z,82.47
2019-01-08T17:37:00.813Z,82.17
2019-01-08T17:39:29.741Z,82.59
2019-01-08T17:41:58.630Z,82.86
2019-01-08T17:44:27.962Z,82.82
2019-01-08T17:46:56.604Z,82.41
2019-01-08T17:49:25.604Z,82.28
2019-01-08T17:51:54.743Z,82.48
2019-01-08T17:54:23.800Z,82.50
2019-01-08T17:56:53.307Z,82.26
2019-01-08T17:59:22.747Z,82.58
2019-01-08T18:01:59.862Z,82.53
2019-01-08T18:04:28.873Z,82.19
2019-01-08T18:06:57.781Z,82.06
2019-01-08T18:09:26.403Z,82.77
2019-01-08T18:11:55.356Z,84.16
2019-01-08T18:14:24.559Z,86.35
2019-01-08T18:16:53.462Z,86.48
2019-01-08T18:19:22.463Z,85.82
2019-01-08T18:21:51.054Z,85.24
2019-01-08T18:24:19.738Z,84.53
2019-01-08T18:26:48.731Z,84.27
2019-01-08T18:29:17.716Z,82.83
2019-01-08T18:31:46.361Z,81.79
2019-01-08T18:34:15.278Z,82.55
2019-01-08T18:36:44.161Z,83.54
2019-01-08T18:39:13.370Z,84.01
2019-01-08T18:41:42.577Z,83.55
2019-01-08T18:44:11.455Z,82.55
2019-01-08T18:46:40.449Z,82.85
2019-01-08T18:49:09.754Z,83.05
2019-01-08T18:51:38.349Z,83.44
2019-01-08T18:54:07.327Z,83.58
2019-01-08T18:56:36.325Z,83.74
2019-01-08T18:59:05.223Z,84.42
2019-01-08T19:01:34.239Z,85.09
2019-01-08T19:04:03.206Z,85.76
2019-01-08T19:06:31.843Z,86.01
2019-01-08T19:09:44.226Z,86.00
2019-01-08T19:12:15.635Z,86.34
2019-01-08T19:14:44.540Z,86.42
2019-01-08T19:17:13.123Z,84.73
2019-01-08T19:19:42.092Z,84.94
2019-01-08T19:22:11.105Z,84.26
2019-01-08T19:24:40.410Z,85.20
2019-01-08T19:27:09.009Z,84.70
2019-01-08T19:29:38.296Z,84.26
2019-01-08T19:32:07.600Z,84.50
2019-01-08T19:34:36.641Z,84.01
2019-01-08T19:37:05.368Z,84.62
2019-01-08T19:39:33.960Z,84.62
2019-01-08T19:42:02.615Z,84.09
2019-01-08T19:44:31.852Z,84.51
2019-01-08T19:47:00.484Z,83.87
2019-01-08T19:49:30.143Z,83.76
2019-01-08T19:51:59.035Z,82.86
2019-01-08T19:54:28.335Z,82.70
2019-01-08T19:56:57.655Z,83.47
2019-01-08T19:59:26.939Z,83.15
2019-01-08T20:01:55.589Z,82.53
2019-01-08T20:04:24.286Z,81.34
2019-01-08T20:06:53.523Z,81.95
2019-01-08T20:09:25.554Z,82.64
2019-01-08T20:11:53.445Z,83.03
2019-01-08T20:14:23.321Z,82.92
2019-01-08T20:16:52.351Z,82.38
2019-01-08T20:19:21.858Z,82.60
2019-01-08T20:21:50.830Z,82.71
2019-01-08T20:24:19.748Z,83.72
2019-01-08T20:26:48.948Z,83.57
2019-01-08T20:29:17.664Z,82.86
2019-01-08T20:31:47.055Z,83.29
2019-01-08T20:34:16.023Z,83.29
2019-01-08T20:36:44.701Z,82.53
2019-01-08T20:39:15.604Z,83.11
2019-01-08T20:41:44.776Z,83.88
2019-01-08T20:44:14.171Z,83.53
2019-01-08T20:46:43.015Z,84.39
2019-01-08T20:49:11.941Z,84.55
2019-01-08T20:51:40.571Z,83.91
2019-01-08T20:54:09.209Z,83.73
2019-01-08T20:56:38.099Z,84.16
2019-01-08T20:59:07.078Z,84.26
2019-01-08T21:01:36.081Z,84.02
2019-01-08T21:04:05.078Z,83.70
2019-01-08T21:06:33.690Z,83.63
2019-01-08T21:09:03.448Z,83.53
2019-01-08T21:11:32.074Z,83.84
2019-01-08T21:14:01.051Z,84.51
2019-01-08T21:16:29.667Z,84.55
2019-01-08T21:18:58.627Z,85.18
2019-01-08T21:21:27.518Z,85.11
2019-01-08T21:23:56.410Z,85.81
2019-01-08T21:26:25.302Z,86.61
2019-01-08T21:28:53.934Z,87.27
2019-01-08T21:31:23.392Z,87.43
2019-01-08T21:33:52.163Z,86.86
2019-01-08T21:36:21.039Z,86.74
2019-01-08T21:38:49.985Z,86.25
2019-01-08T21:41:19.331Z,87.11
2019-01-08T21:43:48.587Z,87.30
2019-01-08T21:46:20.527Z,86.84
2019-01-08T21:48:49.832Z,87.20
2019-01-08T21:51:18.722Z,86.97
2019-01-08T21:53:47.364Z,86.94
2019-01-08T21:56:16.712Z,86.53
2019-01-08T21:58:46.321Z,86.85
2019-01-08T22:01:14.938Z,86.08
2019-01-08T22:03:43.608Z,86.12
2019-01-08T22:06:12.478Z,84.99
2019-01-08T22:08:41.372Z,85.37
2019-01-08T22:11:10.040Z,85.45
2019-01-08T22:13:38.948Z,85.41
2019-01-08T22:16:08.162Z,85.90
2019-01-08T22:18:37.155Z,85.29
2019-01-08T22:21:06.352Z,85.00
2019-01-08T22:23:35.335Z,85.65
2019-01-08T22:26:04.330Z,85.24
2019-01-08T22:28:33.229Z,85.06
2019-01-08T22:31:02.120Z,85.96
2019-01-08T22:33:31.118Z,86.42
2019-01-08T22:36:00.105Z,86.14
2019-01-08T22:38:29.003Z,85.88
2019-01-08T22:40:57.990Z,85.91
2019-01-08T22:43:26.881Z,86.37
2019-01-08T22:45:56.266Z,85.93
2019-01-08T22:48:25.172Z,86.61
2019-01-08T22:50:54.475Z,86.09
2019-01-08T22:53:23.163Z,86.06
2019-01-08T22:55:51.891Z,86.42
2019-01-08T22:58:20.871Z,86.30
2019-01-08T23:01:08.072Z,87.13
2019-01-08T23:03:37.977Z,86.42
2019-01-08T23:06:06.563Z,86.74
2019-01-08T23:08:35.659Z,86.92
2019-01-08T23:11:04.363Z,86.62
2019-01-08T23:13:33.333Z,85.65
2019-01-08T23:16:02.638Z,86.07
2019-01-08T23:18:31.231Z,85.55
2019-01-08T23:20:59.892Z,85.35
2019-01-08T23:23:28.524Z,84.84
2019-01-08T23:25:57.592Z,84.41
2019-01-08T23:28:26.196Z,84.73
2019-01-08T23:30:55.530Z,84.89
2019-01-08T23:33:24.469Z,84.84
2019-01-08T23:35:54.178Z,84.65
2019-01-08T23:38:23.171Z,85.04
2019-01-08T23:40:52.160Z,85.46
2019-01-08T23:43:20.848Z,85.39
2019-01-08T23:45:51.288Z,85.62
2019-01-08T23:48:20.271Z,85.12
2019-01-08T23:50:49.567Z,85.59
2019-01-08T23:53:29.942Z,85.44
2019-01-08T23:56:01.069Z,85.51
2019-01-08T23:58:30.373Z,85.69
